createdAt,value
2019-05-26T00:01:32.895Z,86.85
2019-05-26T00:04:06.998Z,86.60
2019-05-26T00:06:41.117Z,86.83
2019-05-26T00:09:12.765Z,86.81
2019-05-26T00:11:45.850Z,86.77
2019-05-26T00:14:19.160Z,86.81
2019-05-26T00:16:53.050Z,86.74
2019-05-26T00:19:24.604Z,86.85
2019-05-26T00:21:58.201Z,86.65
2019-05-26T00:24:33.932Z,86.73
2019-05-26T00:27:05.914Z,86.91
2019-05-26T00:29:41.457Z,87.06
2019-05-26T00:32:14.548Z,87.14
2019-05-26T00:34:46.328Z,87.29
2019-05-26T00:37:19.395Z,87.34
2019-05-26T00:39:51.140Z,87.38
2019-05-26T00:42:22.919Z,87.36
2019-05-26T00:44:55.553Z,87.35
2019-05-26T00:47:28.102Z,87.40
2019-05-26T00:50:00.378Z,87.43
2019-05-26T00:52:33.954Z,87.38
2019-05-26T00:55:09.143Z,87.37
2019-05-26T00:57:41.634Z,87.51
2019-05-26T01:00:18.703Z,87.55
2019-05-26T01:02:50.476Z,87.54
2019-05-26T01:05:23.050Z,87.60
2019-05-26T01:08:05.807Z,87.59
2019-05-26T01:10:27.446Z,87.41
2019-05-26T01:13:01.703Z,87.41
2019-05-26T01:15:34.055Z,87.52
2019-05-26T01:18:06.805Z,87.40
2019-05-26T01:20:37.982Z,87.30
2019-05-26T01:23:11.594Z,86.99
2019-05-26T01:25:43.962Z,87.00
2019-05-26T01:28:17.811Z,86.93
2019-05-26T01:30:50.152Z,86.89
2019-05-26T01:33:21.692Z,86.36
2019-05-26T01:35:54.770Z,86.35
2019-05-26T01:38:26.587Z,86.35
2019-05-26T01:40:57.949Z,86.42
2019-05-26T01:43:31.163Z,86.49
2019-05-26T01:46:03.242Z,86.54
2019-05-26T01:48:34.698Z,86.59
2019-05-26T01:51:08.703Z,86.90
2019-05-26T01:53:41.476Z,87.10
2019-05-26T01:56:13.340Z,87.14
2019-05-26T01:58:46.562Z,86.81
2019-05-26T02:01:20.434Z,86.91
2019-05-26T02:03:52.605Z,86.35
2019-05-26T02:06:27.027Z,86.57
2019-05-26T02:08:58.454Z,86.41
2019-05-26T02:11:33.022Z,86.02
2019-05-26T02:14:06.265Z,85.81
2019-05-26T02:16:37.729Z,85.48
2019-05-26T02:19:09.950Z,85.16
2019-05-26T02:21:42.896Z,85.16
2019-05-26T02:24:14.639Z,85.07
2019-05-26T02:26:48.049Z,84.61
2019-05-26T02:29:20.946Z,84.45
2019-05-26T02:31:52.587Z,84.74
2019-05-26T02:34:24.229Z,84.98
2019-05-26T02:36:55.977Z,84.91
2019-05-26T02:39:27.737Z,84.75
2019-05-26T02:41:59.622Z,84.42
2019-05-26T02:44:34.931Z,84.47
2019-05-26T02:47:06.803Z,84.39
2019-05-26T02:49:39.678Z,84.00
2019-05-26T02:52:14.810Z,83.99
2019-05-26T02:54:46.245Z,84.27
2019-05-26T02:57:20.274Z,84.42
2019-05-26T02:59:53.153Z,84.47
2019-05-26T03:02:28.186Z,84.41
2019-05-26T03:04:59.944Z,84.39
2019-05-26T03:07:33.783Z,84.29
2019-05-26T03:10:07.450Z,84.29
2019-05-26T03:12:42.385Z,84.31
2019-05-26T03:15:13.971Z,83.98
2019-05-26T03:17:47.774Z,83.74
2019-05-26T03:20:20.623Z,83.13
2019-05-26T03:22:56.887Z,82.94
2019-05-26T03:25:29.945Z,82.32
2019-05-26T03:28:02.798Z,82.27
2019-05-26T03:30:35.166Z,81.79
2019-05-26T03:33:11.482Z,81.99
2019-05-26T03:35:43.042Z,82.08
2019-05-26T03:38:16.345Z,81.73
2019-05-26T03:40:47.858Z,81.13
2019-05-26T03:43:19.929Z,80.75
2019-05-26T03:46:04.397Z,80.92
2019-05-26T03:48:37.074Z,80.64
2019-05-26T03:51:11.047Z,80.24
2019-05-26T03:53:42.497Z,80.19
2019-05-26T03:56:16.134Z,80.24
2019-05-26T03:58:48.201Z,79.38
2019-05-26T04:01:20.084Z,79.53
2019-05-26T04:03:51.942Z,79.79
2019-05-26T04:06:25.450Z,80.03
2019-05-26T04:08:57.589Z,79.74
2019-05-26T04:11:31.380Z,79.77
2019-05-26T04:14:04.590Z,79.51
2019-05-26T04:16:38.208Z,79.51
2019-05-26T04:19:09.524Z,79.09
2019-05-26T04:21:43.223Z,79.65
2019-05-26T04:24:16.311Z,80.02
2019-05-26T04:26:51.850Z,80.43
2019-05-26T04:29:23.615Z,81.71
2019-05-26T04:32:01.844Z,81.95
2019-05-26T04:34:32.220Z,82.13
2019-05-26T04:37:05.642Z,81.72
2019-05-26T04:39:38.225Z,81.21
2019-05-26T04:42:09.733Z,80.89
2019-05-26T04:44:41.567Z,80.59
2019-05-26T04:47:14.347Z,79.69
2019-05-26T04:49:46.065Z,79.02
2019-05-26T04:52:19.535Z,78.22
2019-05-26T04:54:53.154Z,77.92
2019-05-26T04:57:25.422Z,78.91
2019-05-26T04:59:56.763Z,79.23
2019-05-26T05:02:29.142Z,79.25
2019-05-26T05:05:00.686Z,78.49
2019-05-26T05:07:32.689Z,77.41
2019-05-26T05:10:05.993Z,76.41
2019-05-26T05:12:39.167Z,75.36
2019-05-26T05:15:11.814Z,74.49
2019-05-26T05:17:44.536Z,74.17
2019-05-26T05:20:16.248Z,73.85
2019-05-26T05:22:49.322Z,72.17
2019-05-26T05:25:20.990Z,71.28
2019-05-26T05:27:56.540Z,71.24
2019-05-26T05:30:30.752Z,72.10
2019-05-26T05:33:02.290Z,72.70
2019-05-26T05:35:37.991Z,72.30
2019-05-26T05:38:10.316Z,70.54
2019-05-26T05:40:58.281Z,70.87
2019-05-26T05:43:16.192Z,71.45
2019-05-26T05:45:50.183Z,71.38
2019-05-26T05:48:23.393Z,71.64
2019-05-26T05:50:56.272Z,72.03
2019-05-26T05:53:29.355Z,71.24
2019-05-26T05:56:01.119Z,69.23
2019-05-26T05:58:32.434Z,69.10
2019-05-26T06:01:04.123Z,68.45
2019-05-26T06:03:36.970Z,67.38
2019-05-26T06:06:10.197Z,67.77
2019-05-26T06:08:43.044Z,66.79
2019-05-26T06:11:17.453Z,66.40
2019-05-26T06:13:50.682Z,66.18
2019-05-26T06:16:27.040Z,67.65
2019-05-26T06:19:01.764Z,68.52
2019-05-26T06:21:33.118Z,68.00
2019-05-26T06:24:06.821Z,67.40
2019-05-26T06:26:37.755Z,67.65
2019-05-26T06:29:09.217Z,67.37
2019-05-26T06:31:41.988Z,67.67
2019-05-26T06:34:13.744Z,66.69
2019-05-26T06:36:45.936Z,66.49
2019-05-26T06:39:18.689Z,66.47
2019-05-26T06:41:50.037Z,66.43
2019-05-26T06:44:21.838Z,63.72
2019-05-26T06:46:56.116Z,64.26
2019-05-26T06:49:28.788Z,66.10
2019-05-26T06:52:00.349Z,65.19
2019-05-26T06:54:33.003Z,66.45
2019-05-26T06:57:04.878Z,67.41
2019-05-26T06:59:37.773Z,65.65
2019-05-26T07:02:11.759Z,65.03
2019-05-26T07:04:44.155Z,65.10
2019-05-26T07:07:19.501Z,65.72
2019-05-26T07:09:51.849Z,66.20
2019-05-26T07:12:25.349Z,65.53
2019-05-26T07:14:59.976Z,64.85
2019-05-26T07:17:31.836Z,64.56
2019-05-26T07:20:07.375Z,64.70
2019-05-26T07:22:38.720Z,62.85
2019-05-26T07:25:10.958Z,60.93
2019-05-26T07:27:43.770Z,61.22
2019-05-26T07:30:17.373Z,60.72
2019-05-26T07:32:50.564Z,61.66
2019-05-26T07:35:23.162Z,61.93
2019-05-26T07:37:57.443Z,60.74
2019-05-26T07:40:28.630Z,59.47
2019-05-26T07:43:02.810Z,60.15
2019-05-26T07:45:35.900Z,59.69
2019-05-26T07:48:08.366Z,58.74
2019-05-26T07:50:43.520Z,59.31
2019-05-26T07:53:16.076Z,59.12
2019-05-26T07:55:49.475Z,59.72
2019-05-26T07:58:23.379Z,59.83
2019-05-26T08:00:55.356Z,58.49
2019-05-26T08:03:27.204Z,57.49
2019-05-26T08:06:00.600Z,56.16
2019-05-26T08:08:33.176Z,55.40
2019-05-26T08:11:05.240Z,56.74
2019-05-26T08:13:38.833Z,55.10
2019-05-26T08:16:10.101Z,53.51
2019-05-26T08:18:44.116Z,53.86
2019-05-26T08:21:16.664Z,54.36
2019-05-26T08:23:52.416Z,54.70
2019-05-26T08:26:25.102Z,54.52
2019-05-26T08:28:58.525Z,52.89
2019-05-26T08:31:31.421Z,51.00
2019-05-26T08:34:05.379Z,50.37
2019-05-26T08:36:37.479Z,49.79
2019-05-26T08:39:09.821Z,51.50
2019-05-26T08:41:41.367Z,52.73
2019-05-26T08:44:14.049Z,54.28
2019-05-26T08:46:47.944Z,54.68
2019-05-26T08:49:19.302Z,56.23
2019-05-26T08:51:50.693Z,56.51
2019-05-26T08:54:23.839Z,56.09
2019-05-26T08:56:55.387Z,55.80
2019-05-26T08:59:29.158Z,53.02
2019-05-26T09:02:01.974Z,51.68
2019-05-26T09:04:35.472Z,48.86
2019-05-26T09:07:09.411Z,49.68
2019-05-26T09:09:42.363Z,49.41
2019-05-26T09:12:14.837Z,48.78
2019-05-26T09:14:46.239Z,50.51
2019-05-26T09:17:18.968Z,51.80
2019-05-26T09:19:52.462Z,53.49
2019-05-26T09:22:24.076Z,55.38
2019-05-26T09:24:59.555Z,53.13
2019-05-26T09:27:32.453Z,53.51
2019-05-26T09:30:06.047Z,55.60
2019-05-26T09:32:38.417Z,60.75
2019-05-26T09:35:10.888Z,65.01
2019-05-26T09:37:44.386Z,66.73
2019-05-26T09:40:16.220Z,67.52
2019-05-26T09:42:50.054Z,66.30
2019-05-26T09:45:23.036Z,65.08
2019-05-26T09:47:57.846Z,67.71
2019-05-26T09:50:29.246Z,68.78
2019-05-26T09:53:02.714Z,67.60
2019-05-26T09:55:37.130Z,68.95
2019-05-26T09:58:09.391Z,70.55
2019-05-26T10:00:43.503Z,69.42
2019-05-26T10:03:16.693Z,67.76
2019-05-26T10:05:50.396Z,62.72
2019-05-26T10:08:22.595Z,59.56
2019-05-26T10:10:58.119Z,57.78
2019-05-26T10:13:32.051Z,56.85
2019-05-26T10:16:04.570Z,54.86
2019-05-26T10:18:40.135Z,54.44
2019-05-26T10:21:15.071Z,55.78
2019-05-26T10:23:46.725Z,57.08
2019-05-26T10:26:18.679Z,53.99
2019-05-26T10:28:50.540Z,50.73
2019-05-26T10:31:27.928Z,49.61
2019-05-26T10:34:00.713Z,44.12
2019-05-26T10:36:33.935Z,48.53
2019-05-26T10:39:08.333Z,53.95
2019-05-26T10:41:41.307Z,55.43
2019-05-26T10:44:13.151Z,54.31
2019-05-26T10:46:47.174Z,50.40
2019-05-26T10:49:19.935Z,49.20
2019-05-26T10:51:54.082Z,47.61
2019-05-26T10:54:28.588Z,45.58
2019-05-26T10:57:00.651Z,43.55
2019-05-26T10:59:35.179Z,40.96
2019-05-26T11:02:08.462Z,39.71
2019-05-26T11:04:40.115Z,40.67
2019-05-26T11:07:12.806Z,40.83
2019-05-26T11:09:45.279Z,42.45
2019-05-26T11:12:17.463Z,43.91
2019-05-26T11:14:52.470Z,41.83
2019-05-26T11:17:23.932Z,39.87
2019-05-26T11:19:56.428Z,37.13
2019-05-26T11:22:28.045Z,36.17
2019-05-26T11:24:59.732Z,39.94
2019-05-26T11:27:31.659Z,40.90
2019-05-26T11:30:03.377Z,41.38
2019-05-26T11:32:35.682Z,39.59
2019-05-26T11:35:10.470Z,40.55
2019-05-26T11:37:41.758Z,41.58
2019-05-26T11:40:14.717Z,43.07
2019-05-26T11:42:46.095Z,44.81
2019-05-26T11:45:20.246Z,47.00
2019-05-26T11:47:51.854Z,47.99
2019-05-26T11:50:23.467Z,49.30
2019-05-26T11:52:56.847Z,49.90
2019-05-26T11:55:29.077Z,50.20
2019-05-26T11:58:01.653Z,49.11
2019-05-26T12:00:33.506Z,47.56
2019-05-26T12:03:08.262Z,47.11
2019-05-26T12:05:38.981Z,51.96
2019-05-26T12:08:10.827Z,54.65
2019-05-26T12:10:46.681Z,54.82
2019-05-26T12:13:18.371Z,53.66
2019-05-26T12:15:50.234Z,47.50
2019-05-26T12:18:22.389Z,41.37
2019-05-26T12:20:54.378Z,37.29
2019-05-26T12:23:26.897Z,36.98
2019-05-26T12:25:58.692Z,34.99
2019-05-26T12:28:31.126Z,32.73
2019-05-26T12:31:02.594Z,33.58
2019-05-26T12:33:34.344Z,34.83
2019-05-26T12:36:06.805Z,34.69
2019-05-26T12:38:39.536Z,33.71
2019-05-26T12:41:12.045Z,37.91
2019-05-26T12:43:43.404Z,37.78
2019-05-26T12:46:17.217Z,38.80
2019-05-26T12:48:49.651Z,41.66
2019-05-26T12:51:21.953Z,45.55
2019-05-26T12:53:54.659Z,49.62
2019-05-26T12:56:28.677Z,51.13
2019-05-26T12:58:59.171Z,53.70
2019-05-26T13:01:34.816Z,56.16
2019-05-26T13:04:10.101Z,54.18
2019-05-26T13:06:41.606Z,53.85
2019-05-26T13:09:15.337Z,55.09
2019-05-26T13:11:47.993Z,51.88
2019-05-26T13:14:21.590Z,44.21
2019-05-26T13:16:56.408Z,39.56
2019-05-26T13:19:31.769Z,35.93
2019-05-26T13:22:03.201Z,32.81
2019-05-26T13:24:37.315Z,31.47
2019-05-26T13:27:12.558Z,32.81
2019-05-26T13:29:44.208Z,34.63
2019-05-26T13:32:18.017Z,36.18
2019-05-26T13:34:50.385Z,35.21
2019-05-26T13:37:22.341Z,33.74
2019-05-26T13:39:54.103Z,33.90
2019-05-26T13:42:25.253Z,39.50
2019-05-26T13:44:56.753Z,41.88
2019-05-26T13:47:29.161Z,45.19
2019-05-26T13:50:00.718Z,48.06
2019-05-26T13:52:36.517Z,50.92
2019-05-26T13:55:10.277Z,51.74
2019-05-26T13:57:41.626Z,53.18
2019-05-26T14:00:17.686Z,55.98
2019-05-26T14:02:50.471Z,59.56
2019-05-26T14:05:22.827Z,62.68
2019-05-26T14:07:55.516Z,66.12
2019-05-26T14:10:33.031Z,71.10
2019-05-26T14:13:06.235Z,68.63
2019-05-26T14:15:39.180Z,68.26
2019-05-26T14:18:12.365Z,68.64
2019-05-26T14:20:44.130Z,68.60
2019-05-26T14:23:16.579Z,70.54
2019-05-26T14:25:52.142Z,67.18
2019-05-26T14:28:27.867Z,68.81
2019-05-26T14:31:00.347Z,72.71
2019-05-26T14:33:34.204Z,71.91
2019-05-26T14:36:07.958Z,62.91
2019-05-26T14:38:43.462Z,58.49
2019-05-26T14:41:15.929Z,56.56
2019-05-26T14:43:47.437Z,58.19
2019-05-26T14:46:19.299Z,58.97
2019-05-26T14:48:50.812Z,56.37
2019-05-26T14:51:23.986Z,50.12
2019-05-26T14:53:57.064Z,45.28
2019-05-26T14:56:30.626Z,43.62
2019-05-26T14:59:03.515Z,40.39
2019-05-26T15:01:37.197Z,38.74
2019-05-26T15:04:11.113Z,39.06
2019-05-26T15:06:41.747Z,39.06
2019-05-26T15:09:24.670Z,40.32
2019-05-26T15:11:46.387Z,39.79
2019-05-26T15:14:18.456Z,41.59
2019-05-26T15:16:50.826Z,48.24
2019-05-26T15:19:23.611Z,54.82
2019-05-26T15:21:57.510Z,55.77
2019-05-26T15:24:31.024Z,58.60
2019-05-26T15:27:05.124Z,59.47
2019-05-26T15:29:36.880Z,58.82
2019-05-26T15:32:10.381Z,59.39
2019-05-26T15:34:44.186Z,55.69
2019-05-26T15:37:16.677Z,50.05
2019-05-26T15:39:48.929Z,47.38
2019-05-26T15:42:20.680Z,44.20
2019-05-26T15:44:52.382Z,44.55
2019-05-26T15:47:26.033Z,47.01
2019-05-26T15:49:58.821Z,47.13
2019-05-26T15:52:31.803Z,45.76
2019-05-26T15:55:07.326Z,45.25
2019-05-26T15:57:39.099Z,45.24
2019-05-26T16:00:11.155Z,46.26
2019-05-26T16:02:42.617Z,45.46
2019-05-26T16:05:17.030Z,46.28
2019-05-26T16:07:49.811Z,46.72
2019-05-26T16:10:24.842Z,50.30
2019-05-26T16:12:56.301Z,54.44
2019-05-26T16:15:28.978Z,55.03
2019-05-26T16:18:02.470Z,52.72
2019-05-26T16:20:34.957Z,52.05
2019-05-26T16:23:09.127Z,51.41
2019-05-26T16:25:44.796Z,54.38
2019-05-26T16:28:15.292Z,55.71
2019-05-26T16:30:48.450Z,55.52
2019-05-26T16:33:24.002Z,55.12
2019-05-26T16:35:57.169Z,55.82
2019-05-26T16:38:30.036Z,57.80
2019-05-26T16:41:02.823Z,56.97
2019-05-26T16:43:36.954Z,57.56
2019-05-26T16:46:08.619Z,57.82
2019-05-26T16:48:40.264Z,57.14
2019-05-26T16:51:14.367Z,57.23
2019-05-26T16:53:46.622Z,56.41
2019-05-26T16:56:20.459Z,56.66
2019-05-26T16:58:53.309Z,57.63
2019-05-26T17:01:27.080Z,58.15
2019-05-26T17:03:59.793Z,58.14
2019-05-26T17:06:35.445Z,59.26
2019-05-26T17:09:08.559Z,59.16
2019-05-26T17:11:40.085Z,60.15
2019-05-26T17:14:14.603Z,59.78
2019-05-26T17:16:47.340Z,59.45
2019-05-26T17:19:19.411Z,60.76
2019-05-26T17:21:52.037Z,60.35
2019-05-26T17:24:24.156Z,61.05
2019-05-26T17:26:55.739Z,61.59
2019-05-26T17:29:30.152Z,61.90
2019-05-26T17:32:01.726Z,62.26
2019-05-26T17:34:34.488Z,62.10
2019-05-26T17:37:08.497Z,62.81
2019-05-26T17:39:41.725Z,62.68
2019-05-26T17:42:15.601Z,62.63
2019-05-26T17:44:47.409Z,62.96
2019-05-26T17:47:29.668Z,63.25
2019-05-26T17:49:54.039Z,63.89
2019-05-26T17:52:26.430Z,63.93
2019-05-26T17:55:00.545Z,64.32
2019-05-26T17:57:32.831Z,64.28
2019-05-26T18:00:12.673Z,64.15
2019-05-26T18:02:44.323Z,64.06
2019-05-26T18:05:18.615Z,63.94
2019-05-26T18:07:50.469Z,64.05
2019-05-26T18:10:26.570Z,63.96
2019-05-26T18:12:59.305Z,64.56
2019-05-26T18:15:34.666Z,64.15
2019-05-26T18:18:08.452Z,63.79
2019-05-26T18:20:40.006Z,64.01
2019-05-26T18:23:12.839Z,63.89
2019-05-26T18:25:45.381Z,63.86
2019-05-26T18:28:18.083Z,64.25
2019-05-26T18:30:52.363Z,64.83
2019-05-26T18:33:24.935Z,64.42
2019-05-26T18:35:58.834Z,63.90
2019-05-26T18:38:32.131Z,63.80
2019-05-26T18:41:04.498Z,64.22
2019-05-26T18:43:35.848Z,64.16
2019-05-26T18:46:10.475Z,64.03
2019-05-26T18:48:42.840Z,63.21
2019-05-26T18:51:15.905Z,63.47
2019-05-26T18:53:48.301Z,63.45
2019-05-26T18:56:19.850Z,63.05
2019-05-26T18:58:54.733Z,63.24
2019-05-26T19:01:26.848Z,62.96
2019-05-26T19:03:59.765Z,63.21
2019-05-26T19:06:33.229Z,63.50
2019-05-26T19:09:08.763Z,63.23
2019-05-26T19:11:41.551Z,62.53
2019-05-26T19:14:14.199Z,62.10
2019-05-26T19:16:47.407Z,61.81
2019-05-26T19:19:21.216Z,61.35
2019-05-26T19:21:52.678Z,61.18
2019-05-26T19:24:24.852Z,61.16
2019-05-26T19:26:56.804Z,61.30
2019-05-26T19:29:29.775Z,61.21
2019-05-26T19:32:05.648Z,60.27
2019-05-26T19:34:39.450Z,59.64
2019-05-26T19:37:12.111Z,59.35
2019-05-26T19:39:45.830Z,59.43
2019-05-26T19:42:21.023Z,59.62
2019-05-26T19:44:52.716Z,58.30
2019-05-26T19:47:25.637Z,58.03
2019-05-26T19:50:00.527Z,58.51
2019-05-26T19:52:33.030Z,57.16
2019-05-26T19:55:09.058Z,57.16
2019-05-26T19:57:43.107Z,56.76
2019-05-26T20:00:17.145Z,56.39
2019-05-26T20:02:48.300Z,57.22
2019-05-26T20:05:22.534Z,55.83
2019-05-26T20:07:55.523Z,55.67
2019-05-26T20:10:29.021Z,54.73
2019-05-26T20:13:03.436Z,54.93
2019-05-26T20:15:34.697Z,54.97
2019-05-26T20:18:06.385Z,54.49
2019-05-26T20:20:39.217Z,53.59
2019-05-26T20:23:13.338Z,54.38
2019-05-26T20:25:49.161Z,53.72
2019-05-26T20:28:23.196Z,53.38
2019-05-26T20:30:58.844Z,53.16
2019-05-26T20:33:31.327Z,53.22
2019-05-26T20:36:03.312Z,53.23
2019-05-26T20:38:35.964Z,53.42
2019-05-26T20:41:08.221Z,52.94
2019-05-26T20:43:42.048Z,52.09
2019-05-26T20:46:14.705Z,51.88
2019-05-26T20:48:46.555Z,52.07
2019-05-26T20:51:19.549Z,51.74
2019-05-26T20:53:52.190Z,51.98
2019-05-26T20:56:23.778Z,52.04
2019-05-26T20:58:56.052Z,51.68
2019-05-26T21:01:28.626Z,52.08
2019-05-26T21:04:01.574Z,51.51
2019-05-26T21:06:34.398Z,51.79
2019-05-26T21:09:11.010Z,52.52
2019-05-26T21:11:43.549Z,52.73
2019-05-26T21:14:15.001Z,52.73
2019-05-26T21:16:49.712Z,52.80
2019-05-26T21:19:22.478Z,52.90
2019-05-26T21:21:55.070Z,52.80
2019-05-26T21:24:28.978Z,53.03
2019-05-26T21:27:00.865Z,53.16
2019-05-26T21:29:33.510Z,53.54
2019-05-26T21:32:06.402Z,53.61
2019-05-26T21:34:38.454Z,53.88
2019-05-26T21:37:12.963Z,54.03
2019-05-26T21:39:45.865Z,54.40
2019-05-26T21:42:20.221Z,54.40
2019-05-26T21:44:51.418Z,54.44
2019-05-26T21:47:25.478Z,54.47
2019-05-26T21:50:00.159Z,54.73
2019-05-26T21:52:31.812Z,54.90
2019-05-26T21:55:06.852Z,54.78
2019-05-26T21:57:38.638Z,54.96
2019-05-26T22:00:17.426Z,54.99
2019-05-26T22:02:51.707Z,54.85
2019-05-26T22:05:24.621Z,55.25
2019-05-26T22:07:57.100Z,55.37
2019-05-26T22:10:28.959Z,55.81
2019-05-26T22:13:02.870Z,56.09
2019-05-26T22:15:34.826Z,56.27
2019-05-26T22:18:08.527Z,56.01
2019-05-26T22:20:42.025Z,56.62
2019-05-26T22:23:16.341Z,56.42
2019-05-26T22:25:48.091Z,56.65
2019-05-26T22:28:22.907Z,56.61
2019-05-26T22:30:57.137Z,56.58
2019-05-26T22:33:29.301Z,57.05
2019-05-26T22:36:03.877Z,56.36
2019-05-26T22:38:40.088Z,56.20
2019-05-26T22:41:13.231Z,56.14
2019-05-26T22:43:44.610Z,56.11
2019-05-26T22:46:19.453Z,56.60
2019-05-26T22:48:54.861Z,56.70
2019-05-26T22:51:26.572Z,56.35
2019-05-26T22:54:01.070Z,56.61
2019-05-26T22:56:36.661Z,56.85
2019-05-26T22:59:10.429Z,56.83
2019-05-26T23:01:42.080Z,56.83
2019-05-26T23:04:14.097Z,57.45
2019-05-26T23:06:49.242Z,57.38
2019-05-26T23:09:21.646Z,57.67
2019-05-26T23:11:53.401Z,57.67
2019-05-26T23:14:25.120Z,57.79
2019-05-26T23:16:57.189Z,57.68
2019-05-26T23:19:33.184Z,58.04
2019-05-26T23:22:05.183Z,57.90
2019-05-26T23:24:39.157Z,58.35
2019-05-26T23:27:12.130Z,58.16
2019-05-26T23:29:45.938Z,58.11
2019-05-26T23:32:17.394Z,58.36
2019-05-26T23:34:49.866Z,58.84
2019-05-26T23:37:21.566Z,58.81
2019-05-26T23:39:53.122Z,59.33
2019-05-26T23:42:27.214Z,59.58
2019-05-26T23:45:01.091Z,59.49
2019-05-26T23:47:33.965Z,59.34
2019-05-26T23:50:07.366Z,60.02
2019-05-26T23:52:39.231Z,60.01
2019-05-26T23:55:13.436Z,60.52
2019-05-26T23:57:47.542Z,60.56
